^^
Saratoga-Weather Station Historical Data
Daily Summary for March 28, 2021 Units:  English    Metric   Both
Daily Weekly Monthly Yearly Custom
  High: Low: Average:
Temperature: 77.7 °F 63.3 °F 70 °F
Dew Point: 66.6 °F 61.2 °F 63.1 °F
Humidity: 93% 58% 80%
Wind Speed: 8.9mph 0mph 1.4mph
Wind Gust: 12mph - -
Wind- - SW
Pressure: 29.9 in 29.9 in -
Precipitation: 0 in    
Historical Graphs
 
 
Tabular Data for March 28, 2021
Time Temperature Dew Point Pressure Wind Wind Speed Wind Gust Humidity Rainfall Rate (Hourly) solar
00:04 65.8 °F 61.5 °F 29.9 in Calm     86% 0 in 0 W/m2
00:09 65.7 °F 61.3 °F 29.9 in Calm     86% 0 in 0 W/m2
00:14 65.7 °F 61.3 °F 29.9 in Calm     86% 0 in 0 W/m2
00:19 65.5 °F 61.2 °F 29.9 in Calm     86% 0 in 0 W/m2
00:24 65.5 °F 61.5 °F 29.9 in Calm     87% 0 in 0 W/m2
00:29 65.7 °F 61.7 °F 29.9 in Calm     87% 0 in 0 W/m2
00:34 65.7 °F 61.7 °F 29.9 in South 0.9 mph 1 mph 87% 0 in 0 W/m2
00:39 65.7 °F 61.7 °F 29.9 in Calm     87% 0 in 0 W/m2
00:44 65.7 °F 61.7 °F 29.9 in Calm   1 mph 87% 0 in 0 W/m2
00:49 65.7 °F 61.7 °F 29.9 in Calm     87% 0 in 0 W/m2
00:54 65.5 °F 61.9 °F 29.9 in Calm   1 mph 88% 0 in 0 W/m2
01:00 65.5 °F 61.9 °F 29.9 in Calm     88% 0 in 0 W/m2
01:05 65.5 °F 61.9 °F 29.9 in South 2 mph 2 mph 88% 0 in 0 W/m2
01:10 65.3 °F 62.1 °F 29.9 in Calm   1 mph 89% 0 in 0 W/m2
01:15 65.1 °F 61.9 °F 29.9 in Calm     89% 0 in 0 W/m2
01:20 65.1 °F 61.9 °F 29.9 in Calm     89% 0 in 0 W/m2
01:25 65.1 °F 61.9 °F 29.9 in Calm     89% 0 in 0 W/m2
01:30 64.9 °F 61.7 °F 29.9 in Calm     89% 0 in 0 W/m2
01:35 64.9 °F 61.7 °F 29.9 in Calm     89% 0 in 0 W/m2
01:40 64.9 °F 61.9 °F 29.9 in Calm     90% 0 in 0 W/m2
01:45 64.9 °F 61.9 °F 29.9 in Calm     90% 0 in 0 W/m2
01:50 64.8 °F 61.7 °F 29.9 in Calm     90% 0 in 0 W/m2
01:55 64.8 °F 61.7 °F 29.9 in Calm     90% 0 in 0 W/m2
02:00 64.8 °F 61.7 °F 29.9 in Calm     90% 0 in 0 W/m2
02:05 64.8 °F 62.1 °F 29.9 in Calm     91% 0 in 0 W/m2
02:10 64.8 °F 62.1 °F 29.9 in Calm     91% 0 in 0 W/m2
02:15 64.6 °F 61.9 °F 29.9 in Calm     91% 0 in 0 W/m2
02:20 64.6 °F 61.9 °F 29.9 in Calm     91% 0 in 0 W/m2
02:25 64.4 °F 61.7 °F 29.9 in Calm     91% 0 in 0 W/m2
02:30 64.2 °F 61.5 °F 29.9 in Calm     91% 0 in 0 W/m2
02:35 64.2 °F 61.5 °F 29.9 in Calm     91% 0 in 0 W/m2
02:40 64.2 °F 61.5 °F 29.9 in Calm     91% 0 in 0 W/m2
02:45 64 °F 61.3 °F 29.9 in Calm     91% 0 in 0 W/m2
02:50 64 °F 61.3 °F 29.9 in Calm     91% 0 in 0 W/m2
02:55 64 °F 61.3 °F 29.9 in Calm     91% 0 in 0 W/m2
03:00 64 °F 61.7 °F 29.9 in Calm     92% 0 in 0 W/m2
03:05 64 °F 61.7 °F 29.9 in Calm     92% 0 in 0 W/m2
03:10 63.9 °F 61.5 °F 29.9 in Calm     92% 0 in 0 W/m2
03:15 63.9 °F 61.5 °F 29.9 in Calm     92% 0 in 0 W/m2
03:20 63.9 °F 61.5 °F 29.9 in Calm     92% 0 in 0 W/m2
03:25 63.9 °F 61.5 °F 29.9 in Calm     92% 0 in 0 W/m2
03:30 63.9 °F 61.5 °F 29.9 in Calm     92% 0 in 0 W/m2
03:35 64 °F 61.7 °F 29.9 in Calm     92% 0 in 0 W/m2
03:40 64 °F 61.7 °F 29.9 in Calm     92% 0 in 0 W/m2
03:45 64 °F 61.7 °F 29.9 in Calm     92% 0 in 0 W/m2
03:50 64 °F 61.7 °F 29.9 in Calm   1 mph 92% 0 in 0 W/m2
03:55 64 °F 61.7 °F 29.9 in SW 0.9 mph 2 mph 92% 0 in 0 W/m2
04:00 64 °F 61.7 °F 29.9 in Calm     92% 0 in 0 W/m2
04:05 64 °F 61.7 °F 29.9 in Calm   2 mph 92% 0 in 0 W/m2
04:10 64 °F 61.7 °F 29.9 in Calm     92% 0 in 0 W/m2
04:15 64 °F 61.7 °F 29.9 in Calm     92% 0 in 0 W/m2
04:20 64 °F 61.7 °F 29.9 in Calm     92% 0 in 0 W/m2
04:25 64 °F 61.7 °F 29.9 in Calm     92% 0 in 0 W/m2
04:30 63.9 °F 61.5 °F 29.9 in Calm     92% 0 in 0 W/m2
04:35 63.9 °F 61.5 °F 29.9 in Calm     92% 0 in 0 W/m2
04:40 63.7 °F 61.3 °F 29.9 in Calm     92% 0 in 0 W/m2
04:45 63.7 °F 61.3 °F 29.9 in Calm     92% 0 in 0 W/m2
04:50 63.5 °F 61.2 °F 29.9 in Calm     92% 0 in 0 W/m2
04:55 63.3 °F 61.3 °F 29.9 in Calm     93% 0 in 0 W/m2
05:00 63.3 °F 61.3 °F 29.9 in Calm     93% 0 in 0 W/m2
05:05 63.3 °F 61.3 °F 29.9 in Calm     93% 0 in 0 W/m2
05:10 63.3 °F 61.3 °F 29.9 in Calm     93% 0 in 0 W/m2
05:15 63.3 °F 61.3 °F 29.9 in Calm     93% 0 in 0 W/m2
05:20 63.3 °F 61.3 °F 29.9 in Calm     93% 0 in 0 W/m2
05:25 63.3 °F 61.3 °F 29.9 in SE 0.9 mph 2 mph 93% 0 in 0 W/m2
05:30 63.3 °F 61.3 °F 29.9 in Calm     93% 0 in 0 W/m2
05:35 63.3 °F 61.3 °F 29.9 in Calm   1 mph 93% 0 in 0 W/m2
05:40 63.5 °F 61.5 °F 29.9 in Calm     93% 0 in 0 W/m2
05:45 63.5 °F 61.5 °F 29.9 in Calm     93% 0 in 0 W/m2
05:50 63.5 °F 61.5 °F 29.9 in Calm   1 mph 93% 0 in 5 W/m2
05:55 63.5 °F 61.5 °F 29.9 in Calm     93% 0 in 5 W/m2
06:00 63.5 °F 61.5 °F 29.9 in Calm     93% 0 in 7 W/m2
06:05 63.5 °F 61.5 °F 29.9 in Calm     93% 0 in 12 W/m2
06:10 63.5 °F 61.5 °F 29.9 in Calm     93% 0 in 21 W/m2
06:15 63.7 °F 61.7 °F 29.9 in SE 0.9 mph 2 mph 93% 0 in 30 W/m2
06:20 63.7 °F 61.7 °F 29.9 in Calm   1 mph 93% 0 in 33 W/m2
06:26 63.7 °F 61.7 °F 29.9 in Calm     93% 0 in 32 W/m2
06:31 63.9 °F 61.9 °F 29.9 in Calm     93% 0 in 46 W/m2
06:36 63.9 °F 61.9 °F 29.9 in SE 0.9 mph 2 mph 93% 0 in 53 W/m2
06:41 64 °F 62.1 °F 29.9 in Calm     93% 0 in 56 W/m2
06:46 64 °F 62.1 °F 29.9 in Calm     93% 0 in 65 W/m2
06:51 64.2 °F 62.2 °F 29.9 in SE 0.9 mph 2 mph 93% 0 in 70 W/m2
06:56 64.6 °F 62.4 °F 29.9 in East 0.9 mph 3 mph 93% 0 in 62 W/m2
07:01 64.8 °F 62.4 °F 29.9 in ENE 2 mph 3 mph 92% 0 in 62 W/m2
07:06 64.9 °F 62.6 °F 29.9 in ENE 0.9 mph 2 mph 92% 0 in 69 W/m2
07:11 65.1 °F 62.8 °F 29.9 in Calm   3 mph 92% 0 in 56 W/m2
07:16 65.5 °F 63.1 °F 29.9 in Calm   1 mph 92% 0 in 39 W/m2
07:21 65.5 °F 63.1 °F 29.9 in Calm     92% 0 in 33 W/m2
07:26 65.7 °F 63.3 °F 29.9 in Calm     92% 0 in 39 W/m2
07:31 65.8 °F 63.5 °F 29.9 in ENE 2 mph 2 mph 92% 0 in 37 W/m2
07:36 65.8 °F 63.5 °F 29.9 in ENE 0.9 mph 3 mph 92% 0 in 40 W/m2
07:41 65.8 °F 63.5 °F 29.9 in Calm     92% 0 in 62 W/m2
07:46 65.8 °F 63.5 °F 29.9 in Calm     92% 0 in 83 W/m2
07:51 65.8 °F 63.5 °F 29.9 in Calm     92% 0 in 79 W/m2
07:56 66 °F 63.7 °F 29.9 in Calm   2 mph 92% 0 in 83 W/m2
08:01 66 °F 63.7 °F 29.9 in Calm     92% 0 in 84 W/m2
08:06 66.2 °F 63.9 °F 29.9 in Calm     92% 0 in 100 W/m2
08:11 66.4 °F 64 °F 29.9 in Calm     92% 0 in 105 W/m2
08:16 66.6 °F 64.2 °F 29.9 in Calm     92% 0 in 114 W/m2
08:21 66.6 °F 63.9 °F 29.9 in WNW 0.9 mph 3 mph 91% 0 in 88 W/m2
08:26 66.7 °F 63.7 °F 29.9 in Calm     90% 0 in 104 W/m2
08:31 66.9 °F 63.9 °F 29.9 in NNW 0.9 mph 3 mph 90% 0 in 128 W/m2
08:36 67.3 °F 64.2 °F 29.9 in NNW 0.9 mph 3 mph 90% 0 in 148 W/m2
08:41 67.5 °F 64 °F 29.9 in Calm   2 mph 89% 0 in 165 W/m2
08:46 67.6 °F 64.2 °F 29.9 in Calm   3 mph 89% 0 in 169 W/m2
08:51 68.2 °F 64.4 °F 29.9 in North 2 mph 3 mph 88% 0 in 179 W/m2
08:56 68.4 °F 64.4 °F 29.9 in NNW 0.9 mph 1 mph 87% 0 in 192 W/m2
09:01 68.7 °F 64.4 °F 29.9 in West 0.9 mph 4 mph 86% 0 in 230 W/m2
09:06 69.3 °F 64.6 °F 29.9 in NW 2.9 mph 7 mph 85% 0 in 265 W/m2
09:11 69.6 °F 64.6 °F 29.9 in WNW 2 mph 4 mph 84% 0 in 213 W/m2
09:16 70 °F 64.2 °F 29.9 in WNW 4.9 mph 5 mph 82% 0 in 304 W/m2
09:21 70.2 °F 64.4 °F 29.9 in WNW 2.9 mph 6 mph 82% 0 in 373 W/m2
09:26 70.3 °F 64.2 °F 29.9 in WNW 4 mph 5 mph 81% 0 in 237 W/m2
09:31 70.3 °F 64.2 °F 29.9 in West 0.9 mph 8 mph 81% 0 in 362 W/m2
09:36 70.5 °F 64.8 °F 29.9 in NW 4 mph 6 mph 82% 0 in 274 W/m2
09:41 70.7 °F 64.6 °F 29.9 in WNW 2 mph 3 mph 81% 0 in 468 W/m2
09:46 70.9 °F 64.8 °F 29.9 in WSW 0.9 mph 6 mph 81% 0 in 244 W/m2
09:52 71.2 °F 64.4 °F 29.9 in SSW 2.9 mph 5 mph 79% 0 in 311 W/m2
09:57 71.4 °F 64.6 °F 29.9 in West 2.9 mph 7 mph 79% 0 in 343 W/m2
10:02 71.2 °F 63.7 °F 29.9 in West 6 mph 12 mph 77% 0 in 480 W/m2
10:07 71.2 °F 64 °F 29.9 in NW 2 mph 4 mph 78% 0 in 364 W/m2
10:12 71.6 °F 64.4 °F 29.9 in WNW 6.9 mph 12 mph 78% 0 in 301 W/m2
10:17 71.4 °F 63.9 °F 29.9 in NE 2 mph 6 mph 77% 0 in 271 W/m2
10:22 71.2 °F 64 °F 29.9 in West 2 mph 3 mph 78% 0 in 229 W/m2
10:27 71.2 °F 64 °F 29.9 in NNW 0.9 mph 3 mph 78% 0 in 218 W/m2
10:32 71.4 °F 64.2 °F 29.9 in NW 2.9 mph 4 mph 78% 0 in 251 W/m2
10:37 72 °F 64.4 °F 29.9 in NW 2.9 mph 6 mph 77% 0 in 680 W/m2
10:42 72.3 °F 64.8 °F 29.9 in West 2.9 mph 3 mph 77% 0 in 680 W/m2
10:47 72.3 °F 64.4 °F 29.9 in Calm   5 mph 76% 0 in 601 W/m2
10:52 72.7 °F 64.2 °F 29.9 in ESE 0.9 mph 2 mph 75% 0 in 475 W/m2
10:57 73 °F 65.5 °F 29.9 in SW 0.9 mph 2 mph 77% 0 in 461 W/m2
11:02 73.6 °F 64.8 °F 29.9 in WSW 2 mph 7 mph 74% 0 in 559 W/m2
11:07 73.8 °F 64.6 °F 29.9 in NE 0.9 mph 5 mph 73% 0 in 705 W/m2
11:12 73.9 °F 65.1 °F 29.9 in NE 0.9 mph 7 mph 74% 0 in 817 W/m2
11:17 73.8 °F 64.6 °F 29.9 in WSW 2 mph 3 mph 73% 0 in 877 W/m2
11:22 73.2 °F 64.4 °F 29.9 in West 0.9 mph 6 mph 74% 0 in 427 W/m2
11:27 73.4 °F 64.6 °F 29.9 in ENE 2 mph 4 mph 74% 0 in 264 W/m2
11:32 73.8 °F 64.9 °F 29.9 in WSW 4 mph 6 mph 74% 0 in 819 W/m2
11:37 73.9 °F 64.4 °F 29.9 in NNW 2 mph 4 mph 72% 0 in 329 W/m2
11:42 73.9 °F 65.1 °F 29.9 in ENE 2 mph 4 mph 74% 0 in 443 W/m2
11:47 74.5 °F 65.3 °F 29.9 in NNW 4 mph 4 mph 73% 0 in 967 W/m2
11:52 74.7 °F 65.5 °F 29.9 in North 0.9 mph 6 mph 73% 0 in 262 W/m2
11:57 75.4 °F 65.7 °F 29.9 in Calm   7 mph 72% 0 in 830 W/m2
12:02 75.7 °F 65.7 °F 29.9 in NNW 2 mph 2 mph 71% 0 in 853 W/m2
12:07 76.3 °F 65.8 °F 29.9 in WNW 2.9 mph 8 mph 70% 0 in 907 W/m2
12:12 76.3 °F 65.8 °F 29.9 in West 4 mph 8 mph 70% 0 in 348 W/m2
12:17 75.7 °F 65.7 °F 29.9 in North 0.9 mph 7 mph 71% 0 in 798 W/m2
12:22 75.6 °F 65.5 °F 29.9 in Calm   8 mph 71% 0 in 798 W/m2
12:27 75.6 °F 65.8 °F 29.9 in WNW 2.9 mph 10 mph 72% 0 in 1004 W/m2
12:32 75.6 °F 65.5 °F 29.9 in NW 4.9 mph 9 mph 71% 0 in 912 W/m2
12:37 75.4 °F 65.7 °F 29.9 in WNW 4 mph 6 mph 72% 0 in 967 W/m2
12:42 75.9 °F 65.8 °F 29.9 in West 6 mph 9 mph 71% 0 in 1039 W/m2
12:47 76.5 °F 65.5 °F 29.9 in WNW 2 mph 4 mph 69% 0 in 367 W/m2
12:52 76.5 °F 65.1 °F 29.9 in NE 0.9 mph 5 mph 68% 0 in 946 W/m2
12:57 76.8 °F 65.5 °F 29.9 in West 4 mph 8 mph 68% 0 in 925 W/m2
13:02 77 °F 65.1 °F 29.9 in West 8.1 mph 9 mph 67% 0 in 940 W/m2
13:07 76.3 °F 64.9 °F 29.9 in NW 6.9 mph 9 mph 68% 0 in 1044 W/m2
13:12 76.3 °F 64.9 °F 29.9 in NW 8.9 mph 12 mph 68% 0 in 1014 W/m2
13:17 76.3 °F 64 °F 29.9 in WNW 2 mph 8 mph 66% 0 in 1030 W/m2
13:22 76.6 °F 64.4 °F 29.9 in WNW 2.9 mph 12 mph 66% 0 in 863 W/m2
13:27 77.2 °F 64.9 °F 29.9 in NNW 0.9 mph 4 mph 66% 0 in 851 W/m2
13:32 77.5 °F 64.8 °F 29.9 in NE 2 mph 4 mph 65% 0 in 816 W/m2
13:37 77.5 °F 64.4 °F 29.9 in WNW 0.9 mph 7 mph 64% 0 in 564 W/m2
13:42 77.5 °F 64.8 °F 29.9 in Calm   5 mph 65% 0 in 798 W/m2
13:47 77.7 °F 64 °F 29.9 in WSW 2.9 mph 7 mph 63% 0 in 745 W/m2
13:52 77.5 °F 63.9 °F 29.9 in WNW 6.9 mph 8 mph 63% 0 in 650 W/m2
13:57 77.4 °F 63.9 °F 29.9 in WSW 2.9 mph 7 mph 63% 0 in 599 W/m2
14:02 77.4 °F 63.3 °F 29.9 in South 0.9 mph 4 mph 62% 0 in 680 W/m2
14:07 77.5 °F 63.5 °F 29.9 in WNW 2 mph 7 mph 62% 0 in 622 W/m2
14:12 77.7 °F 64 °F 29.9 in West 2.9 mph 8 mph 63% 0 in 534 W/m2
14:17 77.7 °F 63.1 °F 29.9 in West 2.9 mph 6 mph 61% 0 in 554 W/m2
14:22 77.5 °F 63.9 °F 29.9 in WNW 2 mph 7 mph 63% 0 in 740 W/m2
14:27 77.4 °F 64.8 °F 29.9 in NW 4 mph 8 mph 65% 0 in 682 W/m2
14:32 77.4 °F 64.2 °F 29.9 in NW 2 mph 3 mph 64% 0 in 548 W/m2
14:37 77.2 °F 64.6 °F 29.9 in West 6 mph 8 mph 65% 0 in 503 W/m2
14:42 76.8 °F 64.2 °F 29.9 in WNW 4.9 mph 10 mph 65% 0 in 483 W/m2
14:47 76.5 °F 64.8 °F 29.9 in WNW 2.9 mph 4 mph 67% 0 in 387 W/m2
14:52 76.6 °F 64.4 °F 29.9 in WSW 4 mph 10 mph 66% 0 in 397 W/m2
14:57 76.3 °F 64 °F 29.9 in WSW 0.9 mph 8 mph 66% 0 in 427 W/m2
15:02 76.1 °F 63.5 °F 29.9 in WNW 4 mph 11 mph 65% 0 in 422 W/m2
15:07 75.9 °F 64.2 °F 29.9 in WNW 2.9 mph 8 mph 67% 0 in 418 W/m2
15:12 75.9 °F 63.7 °F 29.9 in WNW 2 mph 11 mph 66% 0 in 408 W/m2
15:17 75.9 °F 63.7 °F 29.9 in WNW 2.9 mph 9 mph 66% 0 in 513 W/m2
15:22 75.7 °F 63.1 °F 29.9 in WNW 2 mph 10 mph 65% 0 in 466 W/m2
15:27 76.1 °F 63.9 °F 29.9 in WNW 4.9 mph 7 mph 66% 0 in 508 W/m2
15:32 76.3 °F 63.7 °F 29.9 in WNW 6.9 mph 12 mph 65% 0 in 376 W/m2
15:37 76.3 °F 63.7 °F 29.9 in NW 2 mph 6 mph 65% 0 in 396 W/m2
15:42 76.5 °F 63.3 °F 29.9 in SW 2.9 mph 12 mph 64% 0 in 364 W/m2
15:47 76.6 °F 63.1 °F 29.9 in WNW 6 mph 8 mph 63% 0 in 399 W/m2
15:52 76.6 °F 62.2 °F 29.9 in NNW 4 mph 9 mph 61% 0 in 332 W/m2
15:57 76.5 °F 62.1 °F 29.9 in West 6 mph 7 mph 61% 0 in 332 W/m2
16:02 76.5 °F 62.4 °F 29.9 in SW 2.9 mph 7 mph 62% 0 in 408 W/m2
16:07 76.6 °F 62.2 °F 29.9 in SW 2 mph 3 mph 61% 0 in 392 W/m2
16:12 77.2 °F 62.6 °F 29.9 in West 2.9 mph 3 mph 61% 0 in 439 W/m2
16:17 77.2 °F 61.3 °F 29.9 in WSW 4 mph 7 mph 58% 0 in 434 W/m2
16:22 77.2 °F 61.3 °F 29.9 in West 4 mph 6 mph 58% 0 in 441 W/m2
16:27 77.4 °F 61.3 °F 29.9 in NW 2.9 mph 8 mph 58% 0 in 420 W/m2
16:32 77.2 °F 61.7 °F 29.9 in WNW 6 mph 8 mph 59% 0 in 357 W/m2
16:37 77 °F 62.6 °F 29.9 in WNW 2.9 mph 4 mph 61% 0 in 380 W/m2
16:42 77.2 °F 62.6 °F 29.9 in WNW 4 mph 8 mph 61% 0 in 403 W/m2
16:47 77 °F 61.5 °F 29.9 in SSW 2 mph 5 mph 59% 0 in 290 W/m2
16:52 76.8 °F 62.8 °F 29.9 in West 2 mph 4 mph 62% 0 in 269 W/m2
16:57 76.8 °F 61.9 °F 29.9 in WSW 2.9 mph 4 mph 60% 0 in 292 W/m2
17:02 76.6 °F 62.2 °F 29.9 in WNW 4 mph 4 mph 61% 0 in 234 W/m2
17:07 76.5 °F 61.5 °F 29.9 in WNW 4 mph 6 mph 60% 0 in 221 W/m2
17:12 76.3 °F 62.2 °F 29.9 in West 2 mph 4 mph 62% 0 in 246 W/m2
17:17 76.3 °F 62.2 °F 29.9 in West 2 mph 2 mph 62% 0 in 279 W/m2
17:22 76.5 °F 61.5 °F 29.9 in West 2 mph 3 mph 60% 0 in 320 W/m2
17:27 76.6 °F 61.2 °F 29.9 in NW 0.9 mph 2 mph 59% 0 in 403 W/m2
17:32 77 °F 62.1 °F 29.9 in WSW 2.9 mph 4 mph 60% 0 in 350 W/m2
17:37 76.8 °F 61.9 °F 29.9 in NW 2 mph 4 mph 60% 0 in 403 W/m2
17:42 77 °F 62.1 °F 29.9 in West 0.9 mph 5 mph 60% 0 in 366 W/m2
17:47 77.2 °F 62.6 °F 29.9 in NW 2 mph 2 mph 61% 0 in 362 W/m2
17:52 77.2 °F 62.6 °F 29.9 in WSW 2 mph 4 mph 61% 0 in 308 W/m2
17:57 77.2 °F 63.1 °F 29.9 in WSW 0.9 mph 2 mph 62% 0 in 246 W/m2
18:02 77.4 °F 63.9 °F 29.9 in Calm   4 mph 63% 0 in 204 W/m2
18:07 77.4 °F 63.3 °F 29.9 in Calm   2 mph 62% 0 in 169 W/m2
18:12 77.2 °F 63.7 °F 29.9 in East 0.9 mph 1 mph 63% 0 in 121 W/m2
18:17 76.8 °F 62.8 °F 29.9 in WNW 0.9 mph 3 mph 62% 0 in 109 W/m2
18:22 76.5 °F 63.9 °F 29.9 in West 0.9 mph 3 mph 65% 0 in 130 W/m2
18:27 76.3 °F 64.6 °F 29.9 in NNW 0.9 mph 1 mph 67% 0 in 158 W/m2
18:32 76.1 °F 65.1 °F 29.9 in ENE 0.9 mph 2 mph 69% 0 in 169 W/m2
18:37 75.7 °F 65.3 °F 29.9 in West 2 mph 2 mph 70% 0 in 174 W/m2
18:42 75.4 °F 65.7 °F 29.9 in ESE 2.9 mph 4 mph 72% 0 in 155 W/m2
18:47 75.2 °F 65.5 °F 29.9 in Calm   1 mph 72% 0 in 202 W/m2
18:52 75.4 °F 66.2 °F 29.9 in Calm   4 mph 73% 0 in 190 W/m2
18:57 75.4 °F 66.2 °F 29.9 in Calm     73% 0 in 134 W/m2
19:02 75.4 °F 66.2 °F 29.9 in ESE 2 mph 2 mph 73% 0 in 135 W/m2
19:07 75.4 °F 66.2 °F 29.9 in Calm     73% 0 in 114 W/m2
19:12 75.2 °F 65.1 °F 29.9 in Calm     71% 0 in 93 W/m2
19:17 75.4 °F 66.2 °F 29.9 in Calm     73% 0 in 69 W/m2
19:22 75.4 °F 66.6 °F 29.9 in Calm     74% 0 in 67 W/m2
19:27 75.2 °F 66.4 °F 29.9 in Calm     74% 0 in 69 W/m2
19:32 75 °F 66.2 °F 29.9 in East 2.9 mph 4 mph 74% 0 in 60 W/m2
19:37 74.7 °F 65.5 °F 29.9 in East 2.9 mph 4 mph 73% 0 in 58 W/m2
19:42 73.9 °F 64.8 °F 29.9 in SE 4.9 mph 5 mph 73% 0 in 65 W/m2
19:47 73.2 °F 64 °F 29.9 in SE 2.9 mph 8 mph 73% 0 in 67 W/m2
19:52 72.3 °F 63.9 °F 29.9 in East 2 mph 6 mph 75% 0 in 81 W/m2
19:57 71.8 °F 63.9 °F 29.9 in East 6 mph 6 mph 76% 0 in 86 W/m2
20:03 71.2 °F 64 °F 29.9 in ESE 0.9 mph 3 mph 78% 0 in 74 W/m2
20:08 71.1 °F 64.2 °F 29.9 in ESE 4 mph 6 mph 79% 0 in 62 W/m2
20:13 70.9 °F 64 °F 29.9 in East 2 mph 3 mph 79% 0 in 49 W/m2
20:18 70.7 °F 64.2 °F 29.9 in ESE 2 mph 6 mph 80% 0 in 46 W/m2
20:23 70.5 °F 64 °F 29.9 in ESE 2 mph 4 mph 80% 0 in 33 W/m2
20:28 70.3 °F 63.9 °F 29.9 in ENE 2 mph 6 mph 80% 0 in 26 W/m2
20:33 70.2 °F 63.3 °F 29.9 in ENE 4 mph 7 mph 79% 0 in 21 W/m2
20:38 69.8 °F 63 °F 29.9 in SE 2.9 mph 6 mph 79% 0 in 23 W/m2
20:43 69.6 °F 63.1 °F 29.9 in NNE 2.9 mph 3 mph 80% 0 in 23 W/m2
20:48 69.4 °F 63 °F 29.9 in ESE 2.9 mph 6 mph 80% 0 in 23 W/m2
20:53 69.3 °F 63.1 °F 29.9 in Calm   6 mph 81% 0 in 21 W/m2
20:58 69.1 °F 63 °F 29.9 in ESE 0.9 mph 3 mph 81% 0 in 14 W/m2
21:03 69.1 °F 63.3 °F 29.9 in ENE 2 mph 6 mph 82% 0 in 11 W/m2
21:08 68.7 °F 63 °F 29.9 in ESE 2.9 mph 3 mph 82% 0 in 12 W/m2
21:13 68.7 °F 63 °F 29.9 in ESE 0.9 mph 2 mph 82% 0 in 9 W/m2
21:18 68.5 °F 62.8 °F 29.9 in ESE 0.9 mph 3 mph 82% 0 in 7 W/m2
21:23 68.5 °F 62.8 °F 29.9 in ESE 0.9 mph 2 mph 82% 0 in 5 W/m2
21:28 68.4 °F 62.6 °F 29.9 in Calm   1 mph 82% 0 in 0 W/m2
21:33 68.4 °F 63 °F 29.9 in Calm     83% 0 in 0 W/m2
21:38 68.2 °F 62.8 °F 29.9 in Calm   1 mph 83% 0 in 0 W/m2
21:43 68.2 °F 62.8 °F 29.9 in Calm   1 mph 83% 0 in 0 W/m2
21:48 68 °F 62.6 °F 29.9 in WNW 0.9 mph 4 mph 83% 0 in 0 W/m2
21:53 67.8 °F 62.4 °F 29.9 in ENE 2 mph 4 mph 83% 0 in 0 W/m2
21:58 67.8 °F 62.1 °F 29.9 in ENE 2 mph 3 mph 82% 0 in 0 W/m2
22:03 67.8 °F 62.1 °F 29.9 in East 0.9 mph 1 mph 82% 0 in 0 W/m2
22:08 67.8 °F 62.1 °F 29.9 in East 0.9 mph 1 mph 82% 0 in 0 W/m2
22:13 67.8 °F 62.1 °F 29.9 in Calm   1 mph 82% 0 in 0 W/m2
22:18 67.6 °F 62.2 °F 29.9 in Calm     83% 0 in 0 W/m2
22:23 67.6 °F 62.2 °F 29.9 in NE 0.9 mph 2 mph 83% 0 in 0 W/m2
22:28 67.5 °F 61.7 °F 29.9 in Calm   1 mph 82% 0 in 0 W/m2
22:33 67.5 °F 62.1 °F 29.9 in Calm     83% 0 in 0 W/m2
22:38 67.3 °F 61.9 °F 29.9 in Calm     83% 0 in 0 W/m2
22:43 67.1 °F 61.7 °F 29.9 in Calm     83% 0 in 0 W/m2
22:48 66.7 °F 61.7 °F 29.9 in Calm     84% 0 in 0 W/m2
22:53 66.6 °F 61.5 °F 29.9 in Calm     84% 0 in 0 W/m2
22:58 66.4 °F 61.7 °F 29.9 in Calm     85% 0 in 0 W/m2
23:03 66.2 °F 61.5 °F 29.9 in Calm     85% 0 in 0 W/m2
23:08 66 °F 61.3 °F 29.9 in ENE 0.9 mph 1 mph 85% 0 in 0 W/m2
23:13 65.8 °F 61.5 °F 29.9 in Calm   1 mph 86% 0 in 0 W/m2
23:18 65.8 °F 61.5 °F 29.9 in Calm     86% 0 in 0 W/m2
23:23 65.7 °F 61.7 °F 29.9 in Calm   1 mph 87% 0 in 0 W/m2
23:28 65.7 °F 61.7 °F 29.9 in Calm     87% 0 in 0 W/m2
23:33 65.5 °F 61.5 °F 29.9 in Calm     87% 0 in 0 W/m2
23:38 65.5 °F 61.5 °F 29.9 in Calm     87% 0 in 0 W/m2
23:43 65.3 °F 61.3 °F 29.9 in Calm     87% 0 in 0 W/m2
23:48 65.1 °F 61.5 °F 29.9 in Calm   1 mph 88% 0 in 0 W/m2
23:53 65.1 °F 61.5 °F 29.9 in Calm     88% 0 in 0 W/m2
23:58 64.9 °F 61.3 °F 29.9 in Calm   1 mph 88% 0 in 0 W/m2
Juneau County Weather
Compliments of Weather Underground - 4 mb